Time;durP1;ratioP1;P1;durP2;ratioP2;P2;SDS_P1;SDS_P2;PMS_P1;PMS_P2;Temp;Humidity;BMP_temperature;BMP_pressure;BME280_temperature;BME280_humidity;BME280_pressure;Samples;Min_cycle;Max_cycle;Signal;HPM_P1;HPM_P2
2022/08/04 00:01:03;;;;;;;;;;;;;;;-145.18;100.00;46660.41;5012096;28;19914;-77
2022/08/04 00:03:32;;;;;;;;;;;;;;;-145.18;100.00;46656.50;5011516;28;20000;-77
2022/08/04 00:06:08;;;;;;;;;;;;;;;-145.18;100.00;46656.50;5012257;28;19924;-78
2022/08/04 00:08:40;;;;;;;;;;;;;;;-145.18;100.00;46654.53;5012356;28;19924;-77
2022/08/04 00:11:07;;;;;;;;;;;;;;;-145.18;100.00;46656.50;5011842;28;20005;-78
2022/08/04 00:13:36;;;;;;;;;;;;;;;-145.18;100.00;46658.44;4994257;28;20361;-77
2022/08/04 00:16:05;;;;;;;;;;;;;;;-145.18;100.00;46660.41;5012004;28;19913;-77
2022/08/04 00:18:38;;;;;;;;;;;;;;;-145.18;100.00;46660.41;5011804;28;19913;-77
2022/08/04 00:21:04;;;;;;;;;;;;;;;-145.18;100.00;46660.41;5012122;28;20353;-77
2022/08/04 00:23:32;;;;;;;;;;;;;;;-145.18;100.00;46660.41;5011716;28;19913;-77
2022/08/04 00:25:57;;;;;;;;;;;;;;;-145.18;100.00;46660.41;5011876;28;19964;-78
2022/08/04 00:28:23;;;;;;;;;;;;;;;-145.18;100.00;46660.41;5011486;28;19914;-77
2022/08/04 00:30:50;;;;;;;;;;;;;;;-145.18;100.00;46658.44;5011935;28;20008;-77
2022/08/04 00:33:17;;;;;;;;;;;;;;;-145.18;100.00;46660.41;5011087;28;19917;-79
2022/08/04 00:35:43;;;;;;;;;;;;;;;-145.18;100.00;46660.41;5014173;28;19956;-77
2022/08/04 00:38:09;;;;;;;;;;;;;;;-145.18;100.00;46660.41;5030601;28;19945;-77
2022/08/04 00:40:47;;;;;;;;;;;;;;;-145.18;100.00;46660.41;5031500;28;19913;-76
2022/08/04 00:43:29;;;;;;;;;;;;;;;-145.18;100.00;46660.41;5030620;28;20019;-77
2022/08/04 00:45:54;;;;;;;;;;;;;;;-145.18;100.00;46660.41;5031017;28;20020;-77
2022/08/04 00:48:38;;;;;;;;;;;;;;;-145.18;100.00;46660.41;5028751;28;20019;-80
2022/08/04 00:51:09;;;;;;;;;;;;;;;-145.18;100.00;46660.41;5011523;28;20308;-80
2022/08/04 00:53:42;;;;;;;;;;;;;;;-145.18;100.00;46660.41;5011438;28;19913;-79
2022/08/04 00:56:27;;;;;;;;;;;;;;;-145.18;100.00;46660.41;5010809;28;20433;-77
2022/08/04 00:59:10;;;;;;;;;;;;;;;-145.18;100.00;46660.41;5011176;28;19913;-79
2022/08/04 01:01:41;;;;;;;;;;;;;;;-145.18;100.00;46660.41;5010749;28;19927;-79
2022/08/04 01:04:14;;;;;;;;;;;;;;;-145.18;100.00;46660.41;5010771;28;19979;-77
2022/08/04 01:06:40;;;;;;;;;;;;;;;-145.18;100.00;46660.41;5010707;28;19958;-77
2022/08/04 01:09:11;;;;;;;;;;;;;;;-145.18;100.00;46660.41;5011346;28;19913;-76
2022/08/04 01:11:48;;;;;;;;;;;;;;;-145.18;100.00;46660.41;5010662;28;19957;-77
2022/08/04 01:14:40;;;;;;;;;;;;;;;-145.18;100.00;46660.41;5011414;28;19921;-76
2022/08/04 01:17:29;;;;;;;;;;;;;;;-145.18;100.00;46660.41;5010551;28;19914;-77
2022/08/04 01:20:02;;;;;;;;;;;;;;;-145.18;100.00;46660.41;5011101;28;19928;-77
2022/08/04 01:22:31;;;;;;;;;;;;;;;-145.18;100.00;46660.41;5010520;28;19917;-77
2022/08/04 01:25:08;;;;;;;;;;;;;;;-145.18;100.00;46660.41;5011022;28;20004;-77
2022/08/04 01:27:49;;;;;;;;;;;;;;;-145.18;100.00;46660.41;5010811;28;19913;-79
2022/08/04 01:30:14;;;;;;;;;;;;;;;-145.18;100.00;46660.41;5010642;28;20393;-78
2022/08/04 01:32:52;;;;;;;;;;;;;;;-145.18;100.00;46660.41;5010443;28;19949;-79
2022/08/04 01:35:27;;;;;;;;;;;;;;;-145.18;100.00;46660.41;5010838;28;19928;-79
2022/08/04 01:37:52;;;;;;;;;;;;;;;-145.18;100.00;46660.41;5010557;28;19996;-79
2022/08/04 01:40:17;;;;;;;;;;;;;;;-145.18;100.00;46660.41;5010454;28;19940;-81
2022/08/04 01:42:44;;;;;;;;;;;;;;;-145.18;100.00;46660.41;5010304;28;19921;-81
2022/08/04 01:45:10;;;;;;;;;;;;;;;-145.18;100.00;46660.41;5010598;28;20397;-81
2022/08/04 01:47:37;;;;;;;;;;;;;;;-145.18;100.00;46660.41;5010539;28;20366;-81
2022/08/04 01:50:04;;;;;;;;;;;;;;;-145.18;100.00;46660.41;5010864;28;19913;-80
2022/08/04 01:52:31;;;;;;;;;;;;;;;-145.18;100.00;46660.41;5010276;28;19922;-80
2022/08/04 01:54:56;;;;;;;;;;;;;;;-145.18;100.00;46660.41;5010717;28;19937;-80
2022/08/04 01:57:22;;;;;;;;;;;;;;;-145.18;100.00;46660.41;5009829;28;20374;-78
2022/08/04 01:59:49;;;;;;;;;;;;;;;-145.18;100.00;46660.41;5014690;28;19920;-78
2022/08/04 02:02:14;;;;;;;;;;;;;;;-145.18;100.00;46660.41;5274743;23;19917;-79
2022/08/04 02:04:40;;;;;;;;;;;;;;;-145.18;100.00;46660.41;4986660;28;19925;-80
2022/08/04 02:07:24;;;;;;;;;;;;;;;-145.18;100.00;46660.41;4992980;28;19918;-80
2022/08/04 02:10:15;;;;;;;;;;;;;;;-145.18;100.00;46660.41;4983929;28;19975;-80
2022/08/04 02:12:44;;;;;;;;;;;;;;;-145.18;100.00;46660.41;5009241;28;19913;-80
2022/08/04 02:15:18;;;;;;;;;;;;;;;-145.18;100.00;46660.41;5013930;28;19921;-77
2022/08/04 02:17:56;;;;;;;;;;;;;;;-145.18;100.00;46660.41;5013463;28;20390;-79
2022/08/04 02:20:27;;;;;;;;;;;;;;;-145.18;100.00;46660.41;5014395;28;19920;-81
2022/08/04 02:23:00;;;;;;;;;;;;;;;-145.18;100.00;46660.41;5013976;28;19917;-80
2022/08/04 02:25:26;;;;;;;;;;;;;;;-145.18;100.00;46660.41;5014059;28;20251;-81
2022/08/04 02:28:10;;;;;;;;;;;;;;;-145.18;100.00;46654.53;5012881;28;19920;-80
2022/08/04 02:30:58;;;;;;;;;;;;;;;-145.18;100.00;46660.41;4999183;28;19924;-81
2022/08/04 02:33:29;;;;;;;;;;;;;;;-145.18;100.00;46656.50;5000486;28;19914;-80
2022/08/04 02:35:57;;;;;;;;;;;;;;;-145.18;100.00;46660.41;5013620;28;19960;-80
2022/08/04 02:38:30;;;;;;;;;;;;;;;-145.18;100.00;46660.41;5013073;28;20397;-80
2022/08/04 02:40:59;;;;;;;;;;;;;;;-145.18;100.00;46660.41;5013343;28;20326;-78
2022/08/04 02:43:24;;;;;;;;;;;;;;;-145.18;100.00;46660.41;5013798;28;19909;-80
2022/08/04 02:45:51;;;;;;;;;;;;;;;-145.18;100.00;46660.41;5013674;28;20395;-81
2022/08/04 02:48:17;;;;;;;;;;;;;;;-145.18;100.00;46660.41;5013033;28;19913;-80
2022/08/04 02:50:43;;;;;;;;;;;;;;;-145.18;100.00;46660.41;5013275;28;19968;-77
2022/08/04 02:53:12;;;;;;;;;;;;;;;-145.18;100.00;46660.41;5013374;28;20087;-79
2022/08/04 02:55:38;;;;;;;;;;;;;;;-145.18;100.00;46660.41;5013279;28;19968;-79
2022/08/04 02:58:04;;;;;;;;;;;;;;;-145.18;100.00;46660.41;5013066;28;19913;-80
2022/08/04 03:00:29;;;;;;;;;;;;;;;-145.18;100.00;46656.50;5013405;28;19995;-79
2022/08/04 03:03:07;;;;;;;;;;;;;;;-145.18;100.00;46658.44;5020512;28;19924;-80
2022/08/04 03:05:50;;;;;;;;;;;;;;;-145.18;100.00;46656.50;5032952;28;20296;-80
2022/08/04 03:08:18;;;;;;;;;;;;;;;-145.18;100.00;46658.44;5032413;28;20422;-79
2022/08/04 03:10:46;;;;;;;;;;;;;;;-145.18;100.00;46658.44;5032943;28;19983;-80
2022/08/04 03:13:30;;;;;;;;;;;;;;;-145.18;100.00;46654.53;5032465;28;19917;-79
2022/08/04 03:16:13;;;;;;;;;;;;;;;-145.18;100.00;46658.44;5032872;28;19920;-79
2022/08/04 03:18:57;;;;;;;;;;;;;;;-145.18;100.00;46656.50;5032544;28;19909;-79
2022/08/04 03:21:44;;;;;;;;;;;;;;;-145.18;100.00;46658.44;5033015;28;19955;-77
2022/08/04 03:24:12;;;;;;;;;;;;;;;-145.18;100.00;46660.41;5032242;28;20392;-79
2022/08/04 03:26:43;;;;;;;;;;;;;;;-145.18;100.00;46660.41;5033299;28;19920;-79
2022/08/04 03:29:21;;;;;;;;;;;;;;;-145.18;100.00;46660.41;5032229;28;20011;-79
2022/08/04 03:32:04;;;;;;;;;;;;;;;-145.18;100.00;46660.41;5032620;28;19913;-79
2022/08/04 03:34:45;;;;;;;;;;;;;;;-145.18;100.00;46660.41;5032255;28;19917;-79
2022/08/04 03:37:33;;;;;;;;;;;;;;;-145.18;100.00;46660.41;5032423;28;19924;-80
2022/08/04 03:39:58;;;;;;;;;;;;;;;-145.18;100.00;46660.41;4994608;28;19913;-80
2022/08/04 03:42:23;;;;;;;;;;;;;;;-145.18;100.00;46656.50;5031944;28;19916;-81
2022/08/04 03:45:14;;;;;;;;;;;;;;;-145.18;100.00;46660.41;5032810;28;19966;-82
2022/08/04 03:47:48;;;;;;;;;;;;;;;-145.18;100.00;46660.41;5032205;28;19916;-81
2022/08/04 03:50:25;;;;;;;;;;;;;;;-145.18;100.00;46656.50;5032455;28;19913;-81
2022/08/04 03:53:09;;;;;;;;;;;;;;;-145.18;100.00;46660.41;5031683;28;19932;-81
2022/08/04 03:55:47;;;;;;;;;;;;;;;-145.18;100.00;46656.50;5032512;28;19923;-77
2022/08/04 03:58:38;;;;;;;;;;;;;;;-145.18;100.00;46658.44;5013683;28;19913;-79
2022/08/04 04:01:11;;;;;;;;;;;;;;;-145.18;100.00;46656.50;5032073;28;20384;-78
2022/08/04 04:03:39;;;;;;;;;;;;;;;-145.18;100.00;46652.59;5031660;28;19969;-79
2022/08/04 04:06:23;;;;;;;;;;;;;;;-145.18;100.00;46656.50;5031779;28;19912;-79
2022/08/04 04:09:06;;;;;;;;;;;;;;;-145.18;100.00;46640.88;5031644;28;19997;-79
2022/08/04 04:11:34;;;;;;;;;;;;;;;-145.18;100.00;46636.94;5032073;28;19920;-79
2022/08/04 04:14:18;;;;;;;;;;;;;;;-145.18;100.00;46650.63;5031467;28;20343;-80
2022/08/04 04:16:46;;;;;;;;;;;;;;;-145.18;100.00;46638.91;5032020;28;20436;-80
2022/08/04 04:19:12;;;;;;;;;;;;;;;-145.18;100.00;46636.94;5031016;28;19917;-79
2022/08/04 04:21:46;;;;;;;;;;;;;;;-145.18;100.00;46640.88;5030924;28;19913;-79
2022/08/04 04:24:26;;;;;;;;;;;;;;;-145.18;100.00;46640.88;5031112;28;19913;-78
2022/08/04 04:27:07;;;;;;;;;;;;;;;-145.18;100.00;46640.88;4996232;28;19917;-80
2022/08/04 04:29:35;;;;;;;;;;;;;;;-145.18;100.00;46640.88;5007009;28;19968;-78
2022/08/04 04:32:10;;;;;;;;;;;;;;;-145.18;100.00;46638.91;5004751;28;20332;-77
2022/08/04 04:34:54;;;;;;;;;;;;;;;-145.18;100.00;46642.81;5001041;28;19924;-80
2022/08/04 04:37:26;;;;;;;;;;;;;;;-145.18;100.00;46642.81;5005496;28;19959;-78
2022/08/04 04:39:58;;;;;;;;;;;;;;;-145.18;100.00;46654.53;5002648;28;19917;-77
2022/08/04 04:42:32;;;;;;;;;;;;;;;-145.18;100.00;46650.63;5001400;28;20334;-80
2022/08/04 04:44:57;;;;;;;;;;;;;;;-145.18;100.00;46654.53;4999730;28;20008;-78
2022/08/04 04:47:28;;;;;;;;;;;;;;;-145.18;100.00;46652.59;5012444;28;20345;-78
2022/08/04 04:49:53;;;;;;;;;;;;;;;-145.18;100.00;46656.50;5010593;28;19917;-80
2022/08/04 04:52:18;;;;;;;;;;;;;;;-145.18;100.00;46658.44;5028132;28;21141;-80
2022/08/04 04:54:46;;;;;;;;;;;;;;;-145.18;100.00;46652.59;5021781;28;19959;-80
2022/08/04 04:57:16;;;;;;;;;;;;;;;-145.18;100.00;46660.41;5024939;28;19974;-79
2022/08/04 04:59:46;;;;;;;;;;;;;;;-145.18;100.00;46654.53;5012019;28;19920;-78
2022/08/04 05:02:22;;;;;;;;;;;;;;;-145.18;100.00;46658.44;5007004;28;20674;-77
2022/08/04 05:05:05;;;;;;;;;;;;;;;-145.18;100.00;46656.50;4991104;28;19922;-81
2022/08/04 05:07:51;;;;;;;;;;;;;;;-145.18;100.00;46660.41;4991491;28;20349;-75
2022/08/04 05:10:19;;;;;;;;;;;;;;;-145.18;100.00;46660.41;4991384;28;20325;-78
2022/08/04 05:12:51;;;;;;;;;;;;;;;-145.18;100.00;46658.44;4991491;28;20286;-77
2022/08/04 05:15:17;;;;;;;;;;;;;;;-145.18;100.00;46656.50;4991244;28;19918;-79
2022/08/04 05:17:48;;;;;;;;;;;;;;;-145.18;100.00;46658.44;4991251;28;19996;-77
2022/08/04 05:20:25;;;;;;;;;;;;;;;-145.18;100.00;46660.41;4983592;28;20370;-79
2022/08/04 05:22:58;;;;;;;;;;;;;;;-145.18;100.00;46660.41;4979774;28;20005;-79
2022/08/04 05:25:32;;;;;;;;;;;;;;;-145.18;100.00;46660.41;4984041;28;19964;-78
2022/08/04 05:28:06;;;;;;;;;;;;;;;-145.18;100.00;46660.41;4983882;28;19914;-78
2022/08/04 05:30:34;;;;;;;;;;;;;;;-145.18;100.00;46660.41;4981814;28;19937;-78
2022/08/04 05:33:02;;;;;;;;;;;;;;;-145.18;100.00;46660.41;4977216;28;19921;-78
2022/08/04 05:35:33;;;;;;;;;;;;;;;-145.18;100.00;46660.41;4991378;28;19961;-78
2022/08/04 05:37:59;;;;;;;;;;;;;;;-145.18;100.00;46660.41;5008490;28;19997;-78
2022/08/04 05:40:25;;;;;;;;;;;;;;;-145.18;100.00;46660.41;5009342;28;19936;-78
2022/08/04 05:42:53;;;;;;;;;;;;;;;-145.18;100.00;46660.41;5010453;28;20366;-78
2022/08/04 05:45:18;;;;;;;;;;;;;;;-145.18;100.00;46660.41;5008799;28;19924;-79
2022/08/04 05:47:44;;;;;;;;;;;;;;;-145.18;100.00;46660.41;5002824;28;19913;-77
2022/08/04 05:50:10;;;;;;;;;;;;;;;-145.18;100.00;46660.41;4990990;28;20401;-78
2022/08/04 05:52:36;;;;;;;;;;;;;;;-145.18;100.00;46660.41;4971693;28;19981;-78
2022/08/04 05:55:01;;;;;;;;;;;;;;;-145.18;100.00;46631.09;4971542;28;19934;-77
2022/08/04 05:57:28;;;;;;;;;;;;;;;-145.18;100.00;46660.41;4971430;28;19922;-80
2022/08/04 05:59:55;;;;;;;;;;;;;;;-145.18;100.00;46660.41;4970549;28;19924;-74
2022/08/04 06:02:22;;;;;;;;;;;;;;;-145.18;100.00;46660.41;4973513;28;20323;-78
2022/08/04 06:04:48;;;;;;;;;;;;;;;-145.18;100.00;46660.41;4990832;28;20301;-74
2022/08/04 06:07:14;;;;;;;;;;;;;;;-145.18;100.00;46660.41;4990923;28;20271;-74
2022/08/04 06:09:42;;;;;;;;;;;;;;;-145.18;100.00;46631.09;4990733;28;19929;-74
2022/08/04 06:12:09;;;;;;;;;;;;;;;-145.18;100.00;46660.41;4990270;28;19918;-74
2022/08/04 06:14:38;;;;;;;;;;;;;;;-145.18;100.00;46660.41;4990744;28;20449;-74
2022/08/04 06:17:04;;;;;;;;;;;;;;;-145.18;100.00;46660.41;4990765;28;19921;-73
2022/08/04 06:19:30;;;;;;;;;;;;;;;-145.18;100.00;46660.41;4990507;28;19957;-73
2022/08/04 06:21:57;;;;;;;;;;;;;;;-145.18;100.00;46660.41;4998473;28;19913;-73
2022/08/04 06:24:25;;;;;;;;;;;;;;;-145.18;100.00;46631.09;5009262;28;19913;-74
2022/08/04 06:26:51;;;;;;;;;;;;;;;-145.18;100.00;46660.41;5009773;28;19979;-73
2022/08/04 06:29:24;;;;;;;;;;;;;;;-145.18;100.00;46660.41;5009608;28;19917;-74
2022/08/04 06:31:57;;;;;;;;;;;;;;;-145.18;100.00;46633.06;5007515;28;19940;-74
2022/08/04 06:34:23;;;;;;;;;;;;;;;-145.18;100.00;46660.41;5001205;28;19976;-74
2022/08/04 06:36:48;;;;;;;;;;;;;;;-145.18;100.00;46660.41;4999634;28;19928;-74
2022/08/04 06:39:14;;;;;;;;;;;;;;;-145.18;100.00;46660.41;5000448;28;19917;-74
2022/08/04 06:41:39;;;;;;;;;;;;;;;-145.18;100.00;46660.41;4997752;28;19965;-74
2022/08/04 06:44:06;;;;;;;;;;;;;;;-145.18;100.00;46660.41;4990221;28;19914;-74
2022/08/04 06:46:34;;;;;;;;;;;;;;;-145.18;100.00;46660.41;5010163;28;20010;-74
2022/08/04 06:48:59;;;;;;;;;;;;;;;-145.18;100.00;46660.41;5004094;28;19914;-82
2022/08/04 06:51:25;;;;;;;;;;;;;;;-145.18;100.00;46660.41;5013545;28;19925;-79
2022/08/04 06:53:51;;;;;;;;;;;;;;;-145.18;100.00;46660.41;5012052;28;19926;-79
2022/08/04 06:56:17;;;;;;;;;;;;;;;-145.18;100.00;46660.41;4996859;28;19956;-75
2022/08/04 06:58:44;;;;;;;;;;;;;;;-145.18;100.00;46629.13;4992514;28;19964;-74
2022/08/04 07:01:10;;;;;;;;;;;;;;;-145.18;100.00;46660.41;4992744;28;20027;-75
2022/08/04 07:03:36;;;;;;;;;;;;;;;-145.18;100.00;46660.41;4993396;28;20398;-75
2022/08/04 07:06:01;;;;;;;;;;;;;;;-145.18;100.00;46660.41;5003735;28;20020;-75
2022/08/04 07:08:27;;;;;;;;;;;;;;;-145.18;100.00;46625.22;5000317;28;20028;-74
2022/08/04 07:10:53;;;;;;;;;;;;;;;-145.18;100.00;46625.22;4993050;28;20293;-74
2022/08/04 07:13:19;;;;;;;;;;;;;;;-145.18;100.00;46621.31;4993133;28;19918;-73
2022/08/04 07:15:45;;;;;;;;;;;;;;;-145.18;100.00;46621.31;4992486;28;20291;-74
2022/08/04 07:18:10;;;;;;;;;;;;;;;-145.18;100.00;46623.28;5011248;28;20381;-73
2022/08/04 07:20:39;;;;;;;;;;;;;;;-145.18;100.00;46623.28;5013062;28;19914;-74
2022/08/04 07:23:05;;;;;;;;;;;;;;;-145.18;100.00;46621.31;5012569;28;19963;-74
2022/08/04 07:25:32;;;;;;;;;;;;;;;-145.18;100.00;46621.31;5012784;28;19983;-73
2022/08/04 07:27:57;;;;;;;;;;;;;;;-145.18;100.00;46619.38;5012948;28;19914;-73
2022/08/04 07:30:24;;;;;;;;;;;;;;;-145.18;100.00;46621.31;5012647;28;19936;-74
2022/08/04 07:32:49;;;;;;;;;;;;;;;-145.18;100.00;46621.31;5012741;28;20285;-75
2022/08/04 07:35:15;;;;;;;;;;;;;;;-145.18;100.00;46619.38;5012316;28;20004;-74
2022/08/04 07:37:40;;;;;;;;;;;;;;;-145.18;100.00;46621.31;5013029;28;19921;-75
2022/08/04 07:40:06;;;;;;;;;;;;;;;-145.18;100.00;46619.38;5011883;28;20388;-74
2022/08/04 07:42:32;;;;;;;;;;;;;;;-145.18;100.00;46621.31;4994641;28;19921;-73
2022/08/04 07:44:58;;;;;;;;;;;;;;;-145.18;100.00;46617.41;5012297;28;20029;-73
2022/08/04 07:47:23;;;;;;;;;;;;;;;-145.18;100.00;46619.38;5012278;28;19914;-73
2022/08/04 07:49:49;;;;;;;;;;;;;;;-145.18;100.00;46617.41;5012289;28;19921;-74
2022/08/04 07:52:15;;;;;;;;;;;;;;;-145.18;100.00;46623.28;5011943;28;20385;-74
2022/08/04 07:54:41;;;;;;;;;;;;;;;-145.18;100.00;46627.19;5012111;28;20416;-74
2022/08/04 07:57:06;;;;;;;;;;;;;;;-145.18;100.00;46619.38;5012379;28;19913;-74
2022/08/04 07:59:31;;;;;;;;;;;;;;;-145.18;100.00;46621.31;5012562;28;19913;-74
2022/08/04 08:02:01;;;;;;;;;;;;;;;-145.18;100.00;46623.28;5011989;28;19917;-73
2022/08/04 08:04:27;;;;;;;;;;;;;;;-145.18;100.00;46627.19;5012007;28;19924;-74
2022/08/04 08:06:52;;;;;;;;;;;;;;;-145.18;100.00;46625.22;5012144;28;19949;-73
2022/08/04 08:09:20;;;;;;;;;;;;;;;-145.18;100.00;46625.22;5011910;28;19999;-75
2022/08/04 08:11:46;;;;;;;;;;;;;;;-145.18;100.00;46625.22;5012249;28;19921;-75
2022/08/04 08:14:11;;;;;;;;;;;;;;;-145.18;100.00;46629.13;5011682;28;19914;-77
2022/08/04 08:16:37;;;;;;;;;;;;;;;-145.18;100.00;46629.13;5006300;28;19913;-81
2022/08/04 08:19:03;;;;;;;;;;;;;;;-145.18;100.00;46629.13;4992016;28;19972;-78
2022/08/04 08:21:28;;;;;;;;;;;;;;;-145.18;100.00;46627.19;4992446;28;19913;-77
2022/08/04 08:23:54;;;;;;;;;;;;;;;-145.18;100.00;46631.09;4992728;28;19918;-81
2022/08/04 08:26:19;;;;;;;;;;;;;;;-145.18;100.00;46633.06;4992360;28;20004;-80
2022/08/04 08:28:45;;;;;;;;;;;;;;;-145.18;100.00;46635.00;5006139;28;19967;-79
2022/08/04 08:31:11;;;;;;;;;;;;;;;-145.18;100.00;46633.06;5012021;28;20293;-78
2022/08/04 08:33:36;;;;;;;;;;;;;;;-145.18;100.00;46636.94;5011385;28;19921;-77
2022/08/04 08:36:27;;;;;;;;;;;;;;;-145.18;100.00;46638.91;5011830;28;19918;-79
2022/08/04 08:39:02;;;;;;;;;;;;;;;-145.18;100.00;46644.78;4998861;28;19992;-78
2022/08/04 08:41:27;;;;;;;;;;;;;;;-145.18;100.00;46642.81;5002907;28;19928;-80
2022/08/04 08:44:03;;;;;;;;;;;;;;;-145.18;100.00;46650.63;5011055;28;19917;-78
2022/08/04 08:46:43;;;;;;;;;;;;;;;-145.18;100.00;46654.53;5009270;28;20393;-79
2022/08/04 08:49:27;;;;;;;;;;;;;;;-145.18;100.00;46658.44;5011208;28;19910;-79
2022/08/04 08:52:11;;;;;;;;;;;;;;;-145.18;100.00;46652.59;5012135;28;19913;-78
2022/08/04 08:54:46;;;;;;;;;;;;;;;-145.18;100.00;46658.44;5011312;28;19917;-78
2022/08/04 08:57:23;;;;;;;;;;;;;;;-145.18;100.00;46654.53;5011629;28;20000;-78
2022/08/04 09:00:05;;;;;;;;;;;;;;;-145.18;100.00;46652.59;5011034;28;19951;-79
2022/08/04 09:02:36;;;;;;;;;;;;;;;-145.18;100.00;46646.72;5011470;28;19960;-77
2022/08/04 09:05:01;;;;;;;;;;;;;;;-145.18;100.00;46660.41;5009315;28;19913;-80
2022/08/04 09:07:36;;;;;;;;;;;;;;;-145.18;100.00;46652.59;5011031;28;19924;-79
2022/08/04 09:10:10;;;;;;;;;;;;;;;-145.18;100.00;46652.59;5010929;28;19913;-80
2022/08/04 09:12:35;;;;;;;;;;;;;;;-145.18;100.00;46664.31;5011480;28;19913;-79
2022/08/04 09:15:19;;;;;;;;;;;;;;;-145.18;100.00;46664.31;5010085;28;20019;-81
2022/08/04 09:17:54;;;;;;;;;;;;;;;-145.18;100.00;46646.72;5011383;28;19913;-79
2022/08/04 09:20:38;;;;;;;;;;;;;;;-145.18;100.00;46601.78;5010695;28;19914;-79
2022/08/04 09:23:12;;;;;;;;;;;;;;;-145.18;100.00;46642.81;5010932;28;19921;-77
2022/08/04 09:25:44;;;;;;;;;;;;;;;-145.18;100.00;46638.91;5011548;28;19972;-78
2022/08/04 09:28:18;;;;;;;;;;;;;;;-145.18;100.00;46633.06;5011121;28;19944;-78
2022/08/04 09:31:03;;;;;;;;;;;;;;;-145.18;100.00;46633.06;5011248;28;19913;-78
2022/08/04 09:33:38;;;;;;;;;;;;;;;-145.18;100.00;46609.59;5000107;28;19919;-78
2022/08/04 09:36:06;;;;;;;;;;;;;;;-145.18;100.00;46601.78;5010027;28;19931;-78
2022/08/04 09:38:43;;;;;;;;;;;;;;;-145.18;100.00;46617.41;5000988;28;19921;-77
2022/08/04 09:41:08;;;;;;;;;;;;;;;-145.18;100.00;46625.22;5010891;28;19960;-78
2022/08/04 09:43:52;;;;;;;;;;;;;;;-145.18;100.00;46597.88;5010503;28;19913;-77
2022/08/04 09:46:29;;;;;;;;;;;;;;;-145.18;100.00;46607.66;5008786;28;19921;-78
2022/08/04 09:49:01;;;;;;;;;;;;;;;-145.18;100.00;46635.00;5002842;28;19925;-77
2022/08/04 09:51:35;;;;;;;;;;;;;;;-145.18;100.00;46636.94;4996282;28;20437;-77
2022/08/04 09:54:02;;;;;;;;;;;;;;;-145.18;100.00;46642.81;5002713;28;19924;-77
2022/08/04 09:56:40;;;;;;;;;;;;;;;-145.18;100.00;46656.50;5007501;28;20305;-77
2022/08/04 09:59:18;;;;;;;;;;;;;;;-145.18;100.00;46574.44;5017066;28;19919;-77
2022/08/04 10:01:43;;;;;;;;;;;;;;;-145.18;100.00;46629.13;5007136;28;19971;-80
2022/08/04 10:04:11;;;;;;;;;;;;;;;-145.18;100.00;46623.28;5007031;28;19921;-80
2022/08/04 10:06:42;;;;;;;;;;;;;;;-145.18;100.00;46635.00;5026372;28;20377;-81
2022/08/04 10:09:25;;;;;;;;;;;;;;;-145.18;100.00;46642.81;5030304;28;19956;-80
2022/08/04 10:11:54;;;;;;;;;;;;;;;-145.18;100.00;46650.63;5030630;28;19928;-81
2022/08/04 10:14:22;;;;;;;;;;;;;;;-145.18;100.00;46656.50;5029976;28;19913;-80
2022/08/04 10:17:04;;;;;;;;;;;;;;;-145.18;100.00;46648.69;5012494;28;19918;-80
2022/08/04 10:19:34;;;;;;;;;;;;;;;-145.18;100.00;46652.59;4992829;28;19913;-80
2022/08/04 10:22:10;;;;;;;;;;;;;;;-145.18;100.00;46660.41;5011266;28;20352;-80
2022/08/04 10:24:44;;;;;;;;;;;;;;;-145.18;100.00;46664.31;5034163;28;19952;-80
2022/08/04 10:27:24;;;;;;;;;;;;;;;-145.18;100.00;46656.50;5034512;28;20301;-80
2022/08/04 10:29:51;;;;;;;;;;;;;;;-145.18;100.00;46660.41;5034104;28;19916;-80
2022/08/04 10:32:28;;;;;;;;;;;;;;;-145.18;100.00;46672.13;5016169;28;19999;-79
2022/08/04 10:35:02;;;;;;;;;;;;;;;-145.18;100.00;46670.16;5032478;28;20262;-80
2022/08/04 10:37:30;;;;;;;;;;;;;;;-145.18;100.00;46670.16;5017007;28;20659;-80
2022/08/04 10:43:12;;;;;;;;;;;;;;;-145.18;100.00;46568.59;5012839;28;20321;-80
2022/08/04 10:45:43;;;;;;;;;;;;;;;-145.18;100.00;46543.19;4991550;28;19917;-80
2022/08/04 10:48:19;;;;;;;;;;;;;;;-145.18;100.00;46545.16;5004674;28;19918;-79
2022/08/04 10:51:10;;;;;;;;;;;;;;;-145.18;100.00;46541.25;5003499;28;19948;-80
2022/08/04 10:53:37;;;;;;;;;;;;;;;-145.18;100.00;46535.38;4977014;28;20362;-80
2022/08/04 10:56:18;;;;;;;;;;;;;;;-145.18;100.00;46537.34;5013334;28;19992;-80
2022/08/04 10:58:55;;;;;;;;;;;;;;;-145.18;100.00;46537.34;5011770;28;19929;-80
2022/08/04 11:01:26;;;;;;;;;;;;;;;-145.18;100.00;46545.16;5013644;28;19913;-79
2022/08/04 11:03:56;;;;;;;;;;;;;;;-145.18;100.00;46537.34;5013093;28;19921;-79
2022/08/04 11:06:22;;;;;;;;;;;;;;;-145.18;100.00;46545.16;5010828;28;19952;-79
2022/08/04 11:08:51;;;;;;;;;;;;;;;-145.18;100.00;46545.16;5013030;28;19928;-80
2022/08/04 11:11:19;;;;;;;;;;;;;;;-145.18;100.00;46547.09;5012690;28;19921;-80
2022/08/04 11:13:46;;;;;;;;;;;;;;;-145.18;100.00;46543.19;5012806;28;20010;-81
2022/08/04 11:16:25;;;;;;;;;;;;;;;-145.18;100.00;46539.28;5013671;28;19987;-80
2022/08/04 11:19:09;;;;;;;;;;;;;;;-145.18;100.00;46541.25;5010881;28;21228;-79
2022/08/04 11:21:38;;;;;;;;;;;;;;;-145.18;100.00;46525.63;5002829;28;19971;-79
2022/08/04 11:24:15;;;;;;;;;;;;;;;-145.18;100.00;46515.84;5011003;28;19913;-79
2022/08/04 11:26:40;;;;;;;;;;;;;;;-145.18;100.00;46549.06;5012737;28;19917;-80
2022/08/04 11:29:11;;;;;;;;;;;;;;;-145.18;100.00;46537.34;5012598;28;19917;-80
2022/08/04 11:31:40;;;;;;;;;;;;;;;-145.18;100.00;46543.19;5010388;28;19913;-80
2022/08/04 11:34:22;;;;;;;;;;;;;;;-145.18;100.00;46560.78;5011937;28;20412;-81
2022/08/04 11:37:06;;;;;;;;;;;;;;;-145.18;100.00;46541.25;5009309;28;20397;-81
2022/08/04 11:39:35;;;;;;;;;;;;;;;-145.18;100.00;46504.13;5011825;28;20004;-81
2022/08/04 11:42:05;;;;;;;;;;;;;;;-145.18;100.00;46531.47;5012606;28;19918;-80
2022/08/04 11:44:35;;;;;;;;;;;;;;;-145.18;100.00;46584.22;5012411;28;19917;-81
2022/08/04 11:47:08;;;;;;;;;;;;;;;-145.18;100.00;46730.72;5012579;28;19921;-81
2022/08/04 11:49:40;;;;;;;;;;;;;;;-145.18;100.00;46875.28;5010991;28;19925;-81
2022/08/04 11:52:07;;;;;;;;;;;;;;;-145.18;100.00;47056.94;5007210;28;19944;-80
2022/08/04 11:54:33;;;;;;;;;;;;;;;-145.18;100.00;46980.75;4992078;28;20003;-81
2022/08/04 11:56:58;;;;;;;;;;;;;;;-145.18;100.00;46722.91;5008738;28;19964;-82
2022/08/04 11:59:23;;;;;;;;;;;;;;;-145.18;100.00;46707.28;5011820;28;19921;-80
2022/08/04 12:02:05;;;;;;;;;;;;;;;-145.18;100.00;47004.19;5002948;28;20309;-80
2022/08/04 12:04:36;;;;;;;;;;;;;;;-145.18;100.00;47035.44;4991462;28;19918;-80
2022/08/04 12:07:06;;;;;;;;;;;;;;;-145.18;100.00;47062.81;4994514;28;20505;-80
2022/08/04 12:09:41;;;;;;;;;;;;;;;-145.18;100.00;47025.69;5006092;28;19964;-79
2022/08/04 12:12:19;;;;;;;;;;;;;;;-145.18;100.00;47035.44;5009864;28;19913;-80
2022/08/04 12:14:50;;;;;;;;;;;;;;;-145.18;100.00;46976.84;5005216;28;19957;-80
2022/08/04 12:17:21;;;;;;;;;;;;;;;-145.18;100.00;46939.72;5000695;28;19913;-80
2022/08/04 12:19:50;;;;;;;;;;;;;;;-145.18;100.00;46953.41;5005235;28;20452;-80
2022/08/04 12:22:21;;;;;;;;;;;;;;;-145.18;100.00;46941.69;5000230;28;19926;-80
2022/08/04 12:25:06;;;;;;;;;;;;;;;-145.18;100.00;46945.59;4989983;28;19913;-80
2022/08/04 12:27:34;;;;;;;;;;;;;;;-145.18;100.00;47004.19;5001512;28;19921;-75
2022/08/04 12:30:00;;;;;;;;;;;;;;;-145.18;100.00;47019.81;5001826;28;19914;-75
2022/08/04 12:32:33;;;;;;;;;;;;;;;-145.18;100.00;47049.13;5000380;28;20338;-73
2022/08/04 12:35:17;;;;;;;;;;;;;;;-145.18;100.00;46984.66;5000844;28;19924;-79
2022/08/04 12:38:01;;;;;;;;;;;;;;;-145.18;100.00;46978.81;5001687;28;20440;-79
2022/08/04 12:40:30;;;;;;;;;;;;;;;-145.18;100.00;46967.09;5005486;28;19917;-79
2022/08/04 12:43:01;;;;;;;;;;;;;;;-145.18;100.00;46961.22;5004063;28;19924;-78